createdAt,value
2023-09-23T00:12:02.029Z,57.29
2023-09-23T00:14:37.244Z,57.39
2023-09-23T00:17:11.524Z,57.36
2023-09-23T00:19:45.252Z,57.15
2023-09-23T00:22:19.018Z,57.34
2023-09-23T00:24:52.354Z,57.07
2023-09-23T00:37:43.013Z,57.57
2023-09-23T00:40:23.999Z,57.38
2023-09-23T00:42:57.624Z,57.51
2023-09-23T00:45:31.088Z,57.62
2023-09-23T00:48:06.374Z,57.59
2023-09-23T01:04:22.020Z,57.59
2023-09-23T01:06:55.309Z,57.88
2023-09-23T01:09:29.034Z,57.37
2023-09-23T01:12:02.380Z,57.61
2023-09-23T01:14:36.021Z,57.91
2023-09-23T01:17:10.671Z,57.61
2023-09-23T01:19:46.287Z,57.71
2023-09-23T01:29:57.988Z,57.72
2023-09-23T01:32:52.049Z,57.96
2023-09-23T01:35:25.282Z,58.06
2023-09-23T01:37:59.068Z,58.00
2023-09-23T01:40:33.938Z,57.79
2023-09-23T01:43:07.031Z,57.85
2023-09-23T01:56:43.033Z,57.80
2023-09-23T01:59:16.282Z,57.73
2023-09-23T02:01:50.033Z,57.93
2023-09-23T02:04:23.404Z,57.58
2023-09-23T02:06:57.043Z,57.61
2023-09-23T02:09:30.482Z,57.49
2023-09-23T02:25:46.418Z,57.74
2023-09-23T02:28:20.300Z,57.79
2023-09-23T02:30:54.071Z,57.70
2023-09-23T02:33:27.243Z,57.70
2023-09-23T02:36:01.029Z,57.71
2023-09-23T02:38:34.432Z,57.67
2023-09-23T02:51:25.001Z,57.78
2023-09-23T02:54:05.049Z,57.75
2023-09-23T02:56:41.039Z,57.95
2023-09-23T02:59:15.174Z,57.71
2023-09-23T03:01:48.926Z,57.43
2023-09-23T03:04:23.035Z,57.57
2023-09-23T03:17:35.136Z,56.98
2023-09-23T03:20:09.553Z,57.00
2023-09-23T03:22:43.023Z,56.88
2023-09-23T03:25:16.564Z,56.95
2023-09-23T03:27:50.507Z,57.20
2023-09-23T03:30:24.519Z,57.10
2023-09-23T03:43:43.019Z,57.05
2023-09-23T03:46:23.039Z,57.04
2023-09-23T03:48:56.367Z,57.24
2023-09-23T03:51:30.015Z,57.26
2023-09-23T03:54:03.874Z,57.38
2023-09-23T03:56:37.017Z,57.21
2023-09-23T03:59:12.276Z,57.21
2023-09-23T04:12:03.005Z,57.42
2023-09-23T04:14:45.043Z,57.17
2023-09-23T04:17:18.328Z,57.20
2023-09-23T04:19:52.101Z,57.54
2023-09-23T04:22:25.450Z,57.41
2023-09-23T04:24:59.029Z,57.42
2023-09-23T04:38:11.078Z,57.21
2023-09-23T04:40:44.366Z,56.91
2023-09-23T04:43:18.074Z,57.36
2023-09-23T04:45:51.285Z,57.35
2023-09-23T04:48:25.073Z,57.27
2023-09-23T05:05:02.061Z,57.24
2023-09-23T05:07:42.016Z,57.05
2023-09-23T05:10:15.361Z,57.29
2023-09-23T05:12:49.035Z,57.08
2023-09-23T05:15:22.308Z,57.22
2023-09-23T05:17:56.099Z,57.02
2023-09-23T05:20:31.229Z,56.95
2023-09-23T05:30:40.199Z,57.00
2023-09-23T05:33:13.268Z,56.83
2023-09-23T05:35:49.493Z,57.27
2023-09-23T05:38:23.304Z,56.90
2023-09-23T05:40:57.064Z,57.00
2023-09-23T05:43:30.396Z,56.94
2023-09-23T05:59:46.001Z,57.19
2023-09-23T06:02:19.284Z,57.16
2023-09-23T06:04:53.019Z,57.14
2023-09-23T06:07:30.962Z,57.06
2023-09-23T06:10:05.067Z,57.05
2023-09-23T06:26:32.266Z,57.49
2023-09-23T06:28:59.269Z,57.48
2023-09-23T06:31:40.031Z,57.31
2023-09-23T06:34:13.263Z,57.57
2023-09-23T06:36:47.492Z,57.81
2023-09-23T06:39:21.251Z,57.57
2023-09-23T06:52:11.985Z,57.75
2023-09-23T06:54:52.072Z,57.58
2023-09-23T06:57:25.304Z,57.92
2023-09-23T06:59:59.049Z,57.70
2023-09-23T07:02:32.369Z,57.55
2023-09-23T07:05:06.045Z,57.63
2023-09-23T07:18:02.078Z,57.59
2023-09-23T07:20:35.562Z,56.72
2023-09-23T07:23:10.095Z,56.57
2023-09-23T07:25:43.457Z,56.57
2023-09-23T07:28:17.040Z,56.87
2023-09-23T07:30:50.323Z,56.77
2023-09-23T07:33:26.053Z,56.37
2023-09-23T07:46:36.032Z,54.98
2023-09-23T07:49:11.186Z,55.03
2023-09-23T07:51:45.033Z,54.49
2023-09-23T07:54:18.945Z,54.63
2023-09-23T07:56:54.009Z,54.41
2023-09-23T07:59:27.302Z,54.41
2023-09-23T08:12:18.003Z,54.18
2023-09-23T08:14:59.015Z,54.58
2023-09-23T08:17:34.414Z,54.50
2023-09-23T08:20:08.092Z,54.52
2023-09-23T08:22:41.252Z,54.41
2023-09-23T08:25:15.024Z,54.58
2023-09-23T08:38:27.093Z,54.00
2023-09-23T08:41:05.560Z,53.41
2023-09-23T08:43:51.360Z,53.30
2023-09-23T08:46:34.115Z,53.59
2023-09-23T08:49:14.019Z,53.74
2023-09-23T08:51:47.475Z,53.53
2023-09-23T08:54:26.010Z,53.77
2023-09-23T09:04:40.074Z,53.12
2023-09-23T09:07:20.025Z,52.65
2023-09-23T09:09:55.187Z,52.71
2023-09-23T09:12:29.055Z,52.36
2023-09-23T09:15:02.602Z,52.63
2023-09-23T09:17:38.168Z,52.33
2023-09-23T09:20:13.443Z,52.31
2023-09-23T09:33:07.060Z,51.69
2023-09-23T09:35:47.025Z,51.81
2023-09-23T09:38:22.914Z,52.07
2023-09-23T09:40:58.065Z,52.10
2023-09-23T09:43:31.972Z,51.76
2023-09-23T09:59:50.027Z,51.11
2023-09-23T10:02:24.273Z,51.44
2023-09-23T10:04:58.039Z,51.38
2023-09-23T10:07:49.086Z,51.42
2023-09-23T10:10:38.022Z,51.37
2023-09-23T10:13:13.903Z,51.52
2023-09-23T10:25:58.024Z,51.25
2023-09-23T10:28:38.027Z,51.41
2023-09-23T10:31:13.289Z,51.22
2023-09-23T10:33:47.006Z,51.52
2023-09-23T10:36:22.318Z,51.44
2023-09-23T10:38:57.012Z,50.91
2023-09-23T10:52:19.488Z,50.94
2023-09-23T10:54:53.563Z,51.18
2023-09-23T10:57:27.050Z,50.81
2023-09-23T11:00:00.678Z,50.93
2023-09-23T11:02:38.131Z,51.10
2023-09-23T11:05:11.307Z,50.82
2023-09-23T11:18:26.045Z,50.96
2023-09-23T11:21:08.050Z,50.76
2023-09-23T11:23:41.361Z,50.65
2023-09-23T11:26:15.085Z,50.87
2023-09-23T11:28:48.395Z,50.70
2023-09-23T11:31:22.065Z,50.80
2023-09-23T11:33:57.321Z,51.03
2023-09-23T11:46:46.005Z,49.82
2023-09-23T11:49:28.019Z,50.30
2023-09-23T11:52:01.283Z,49.85
2023-09-23T11:54:35.313Z,49.86
2023-09-23T11:57:08.299Z,49.59
2023-09-23T11:59:42.049Z,49.38
2023-09-23T12:12:55.035Z,49.43
2023-09-23T12:15:28.270Z,49.57
2023-09-23T12:18:02.070Z,49.30
2023-09-23T12:20:35.355Z,49.45
2023-09-23T12:23:09.073Z,49.57
2023-09-23T12:25:43.284Z,49.65
2023-09-23T12:38:42.034Z,49.45
2023-09-23T12:41:22.076Z,49.51
2023-09-23T12:43:55.337Z,49.60
2023-09-23T12:46:29.036Z,49.81
2023-09-23T12:49:02.304Z,49.94
2023-09-23T12:51:36.029Z,49.72
2023-09-23T12:54:11.226Z,49.59
2023-09-23T13:07:00.009Z,49.47
2023-09-23T13:09:42.057Z,49.09
2023-09-23T13:12:15.285Z,49.21
2023-09-23T13:14:49.051Z,49.36
2023-09-23T13:17:22.464Z,49.82
2023-09-23T13:19:56.027Z,49.60
2023-09-23T13:33:08.140Z,48.82
2023-09-23T13:35:41.313Z,48.99
2023-09-23T13:38:15.070Z,49.39
2023-09-23T13:40:48.345Z,49.20
2023-09-23T13:43:23.045Z,48.98
2023-09-23T14:00:00.009Z,49.13
2023-09-23T14:02:40.761Z,49.16
2023-09-23T14:05:14.449Z,48.67
2023-09-23T14:07:48.046Z,49.17
2023-09-23T14:10:22.499Z,48.89
2023-09-23T14:12:57.045Z,48.88
2023-09-23T14:15:32.199Z,48.66
2023-09-23T14:25:40.058Z,47.37
2023-09-23T14:28:13.269Z,46.29
2023-09-23T14:30:49.058Z,45.97
2023-09-23T14:33:22.348Z,44.88
2023-09-23T14:35:56.043Z,44.62
2023-09-23T14:38:29.469Z,44.05
2023-09-23T14:54:51.054Z,43.37
2023-09-23T14:57:24.411Z,43.92
2023-09-23T14:59:58.055Z,43.77
2023-09-23T15:02:31.429Z,44.01
2023-09-23T15:05:05.188Z,44.15
2023-09-23T15:19:01.023Z,44.28
2023-09-23T15:21:36.193Z,44.72
2023-09-23T15:24:10.050Z,44.78
2023-09-23T15:26:43.586Z,45.51
2023-09-23T15:29:17.106Z,45.87
2023-09-23T15:31:50.321Z,45.88
2023-09-23T15:34:24.095Z,46.30
2023-09-23T15:47:36.108Z,48.32
2023-09-23T15:50:09.945Z,48.04
2023-09-23T15:52:44.028Z,48.01
2023-09-23T15:55:17.444Z,48.35
2023-09-23T15:57:51.044Z,48.51
2023-09-23T16:00:24.434Z,48.80
2023-09-23T16:13:15.026Z,49.21
2023-09-23T16:15:55.193Z,49.80
2023-09-23T16:18:28.332Z,49.61
2023-09-23T16:21:02.043Z,50.00
2023-09-23T16:23:35.297Z,50.13
2023-09-23T16:39:51.074Z,50.49
2023-09-23T16:42:24.358Z,50.66
2023-09-23T16:44:58.078Z,50.86
2023-09-23T16:47:32.467Z,50.49
2023-09-23T16:50:06.093Z,50.62
2023-09-23T16:52:39.565Z,50.50
2023-09-23T16:55:16.837Z,50.41
2023-09-23T17:08:29.215Z,50.79
2023-09-23T17:11:06.668Z,50.88
2023-09-23T17:13:40.542Z,50.67
2023-09-23T17:16:14.377Z,50.98
2023-09-23T17:18:48.157Z,50.46
2023-09-23T17:32:46.119Z,49.79
2023-09-23T17:35:21.253Z,50.22
2023-09-23T17:37:55.065Z,50.21
2023-09-23T17:40:28.467Z,50.11
2023-09-23T17:43:02.049Z,49.96
2023-09-23T17:45:36.773Z,50.17
2023-09-23T17:48:10.235Z,50.21
2023-09-23T17:50:45.276Z,50.29
2023-09-23T17:59:53.114Z,50.05
2023-09-23T18:02:26.544Z,50.24
2023-09-23T18:05:00.139Z,49.95
2023-09-23T18:07:35.424Z,50.36
2023-09-23T18:10:09.077Z,50.23
2023-09-23T18:12:42.457Z,50.33
2023-09-23T18:15:17.333Z,50.12
2023-09-23T18:28:30.058Z,49.88
2023-09-23T18:31:03.297Z,49.67
2023-09-23T18:33:37.114Z,49.61
2023-09-23T18:36:10.361Z,49.10
2023-09-23T18:38:44.099Z,49.63
2023-09-23T18:55:21.031Z,49.62
2023-09-23T18:58:01.061Z,49.26
2023-09-23T19:00:34.452Z,49.28
2023-09-23T19:03:08.243Z,49.36
2023-09-23T19:05:42.055Z,49.62
2023-09-23T19:08:17.079Z,49.56
2023-09-23T19:10:52.493Z,49.60
2023-09-23T19:20:17.551Z,49.32
2023-09-23T19:22:51.302Z,49.42
2023-09-23T19:25:25.074Z,49.55
2023-09-23T19:28:00.603Z,49.17
2023-09-23T19:30:34.048Z,49.50
2023-09-23T19:33:07.647Z,49.67
2023-09-23T19:35:43.100Z,49.68
2023-09-23T19:48:55.130Z,49.24
2023-09-23T19:51:28.289Z,49.54
2023-09-23T19:54:02.056Z,49.69
2023-09-23T19:56:35.312Z,49.15
2023-09-23T19:59:09.035Z,48.80
2023-09-23T20:15:46.105Z,49.15
2023-09-23T20:18:26.077Z,49.17
2023-09-23T20:20:59.412Z,49.48
2023-09-23T20:23:33.472Z,49.44
2023-09-23T20:26:07.337Z,49.20
2023-09-23T20:28:41.066Z,49.41
2023-09-23T20:41:53.138Z,48.94
2023-09-23T20:44:26.344Z,49.14
2023-09-23T20:47:00.094Z,49.09
2023-09-23T20:49:33.935Z,48.85
2023-09-23T20:52:07.041Z,49.04
2023-09-23T20:54:40.421Z,48.50
2023-09-23T21:07:31.034Z,48.56
2023-09-23T21:10:12.048Z,48.55
2023-09-23T21:12:45.314Z,48.58
2023-09-23T21:15:19.075Z,48.58
2023-09-23T21:17:52.327Z,48.85
2023-09-23T21:20:26.097Z,48.52
2023-09-23T21:33:43.132Z,48.61
2023-09-23T21:36:16.292Z,48.78
2023-09-23T21:38:50.162Z,48.94
2023-09-23T21:41:23.414Z,48.97
2023-09-23T21:43:57.038Z,48.94
2023-09-23T21:46:30.462Z,49.21
2023-09-23T21:49:06.066Z,48.65
2023-09-23T22:02:16.172Z,48.96
2023-09-23T22:04:51.545Z,48.79
2023-09-23T22:07:25.044Z,48.76
2023-09-23T22:09:58.270Z,48.83
2023-09-23T22:12:32.052Z,49.01
2023-09-23T22:15:07.756Z,48.86
2023-09-23T22:28:00.041Z,48.66
2023-09-23T22:30:40.550Z,48.76
2023-09-23T22:33:15.292Z,48.75
2023-09-23T22:35:49.203Z,48.71
2023-09-23T22:38:22.451Z,48.83
2023-09-23T22:40:56.068Z,48.54
2023-09-23T22:54:08.090Z,49.25
2023-09-23T22:56:41.342Z,49.44
2023-09-23T22:59:15.080Z,49.34
2023-09-23T23:01:48.293Z,48.91
2023-09-23T23:04:22.134Z,48.98
2023-09-23T23:06:55.400Z,49.04
2023-09-23T23:09:31.078Z,48.66
2023-09-23T23:22:41.058Z,49.56
2023-09-23T23:25:20.102Z,49.87
2023-09-23T23:28:00.038Z,50.02
2023-09-23T23:30:33.418Z,49.91
2023-09-23T23:33:07.700Z,49.99
2023-09-23T23:35:42.097Z,50.00
2023-09-23T23:48:33.610Z,49.99
2023-09-23T23:51:15.049Z,49.91
2023-09-23T23:53:48.461Z,50.07
2023-09-23T23:56:22.114Z,50.07
2023-09-23T23:58:56.346Z,50.17
